sensor_id;sensor_type;location;lat;lon;timestamp;P1;durP1;ratioP1;P2;durP2;ratioP2
31734;SDS011;18313;48.518;9.124;2023-03-04T00:00:10;61.25;;;30.20;;
31734;SDS011;18313;48.518;9.124;2023-03-04T00:02:38;64.43;;;30.05;;
31734;SDS011;18313;48.518;9.124;2023-03-04T00:05:05;60.80;;;30.35;;
31734;SDS011;18313;48.518;9.124;2023-03-04T00:07:33;63.78;;;31.13;;
31734;SDS011;18313;48.518;9.124;2023-03-04T00:10:01;63.15;;;31.45;;
31734;SDS011;18313;48.518;9.124;2023-03-04T00:12:28;63.42;;;31.60;;
31734;SDS011;18313;48.518;9.124;2023-03-04T00:14:55;61.38;;;31.13;;
31734;SDS011;18313;48.518;9.124;2023-03-04T00:17:22;57.78;;;29.88;;
31734;SDS011;18313;48.518;9.124;2023-03-04T00:19:49;60.22;;;30.52;;
31734;SDS011;18313;48.518;9.124;2023-03-04T00:22:16;62.92;;;31.27;;
31734;SDS011;18313;48.518;9.124;2023-03-04T00:24:44;64.15;;;31.10;;
31734;SDS011;18313;48.518;9.124;2023-03-04T00:27:12;67.78;;;31.20;;
31734;SDS011;18313;48.518;9.124;2023-03-04T00:29:39;62.13;;;31.20;;
31734;SDS011;18313;48.518;9.124;2023-03-04T00:32:06;64.50;;;31.90;;
31734;SDS011;18313;48.518;9.124;2023-03-04T00:34:33;57.15;;;29.65;;
31734;SDS011;18313;48.518;9.124;2023-03-04T00:37:00;59.88;;;29.20;;
31734;SDS011;18313;48.518;9.124;2023-03-04T00:39:29;62.95;;;29.35;;
31734;SDS011;18313;48.518;9.124;2023-03-04T00:41:56;63.88;;;30.48;;
31734;SDS011;18313;48.518;9.124;2023-03-04T00:44:25;61.85;;;30.45;;
31734;SDS011;18313;48.518;9.124;2023-03-04T00:46:52;59.70;;;29.90;;
31734;SDS011;18313;48.518;9.124;2023-03-04T00:49:19;58.33;;;29.75;;
31734;SDS011;18313;48.518;9.124;2023-03-04T00:51:46;64.78;;;30.55;;
31734;SDS011;18313;48.518;9.124;2023-03-04T00:54:13;61.45;;;30.55;;
31734;SDS011;18313;48.518;9.124;2023-03-04T00:56:40;61.13;;;29.77;;
31734;SDS011;18313;48.518;9.124;2023-03-04T00:59:07;58.17;;;28.95;;
31734;SDS011;18313;48.518;9.124;2023-03-04T01:01:34;65.15;;;30.98;;
31734;SDS011;18313;48.518;9.124;2023-03-04T01:04:01;64.25;;;29.60;;
31734;SDS011;18313;48.518;9.124;2023-03-04T01:06:28;67.90;;;32.75;;
31734;SDS011;18313;48.518;9.124;2023-03-04T01:08:55;62.40;;;30.90;;
31734;SDS011;18313;48.518;9.124;2023-03-04T01:11:22;68.00;;;31.70;;
31734;SDS011;18313;48.518;9.124;2023-03-04T01:13:50;69.70;;;32.15;;
31734;SDS011;18313;48.518;9.124;2023-03-04T01:16:18;64.72;;;30.73;;
31734;SDS011;18313;48.518;9.124;2023-03-04T01:18:46;62.72;;;29.23;;
31734;SDS011;18313;48.518;9.124;2023-03-04T01:21:13;62.95;;;30.30;;
31734;SDS011;18313;48.518;9.124;2023-03-04T01:23:40;64.30;;;31.45;;
31734;SDS011;18313;48.518;9.124;2023-03-04T01:26:07;60.97;;;29.92;;
31734;SDS011;18313;48.518;9.124;2023-03-04T01:28:34;62.08;;;30.30;;
31734;SDS011;18313;48.518;9.124;2023-03-04T01:31:01;65.25;;;30.65;;
31734;SDS011;18313;48.518;9.124;2023-03-04T01:33:29;66.60;;;31.02;;
31734;SDS011;18313;48.518;9.124;2023-03-04T01:35:57;61.75;;;30.42;;
31734;SDS011;18313;48.518;9.124;2023-03-04T01:38:24;59.90;;;29.67;;
31734;SDS011;18313;48.518;9.124;2023-03-04T01:40:51;63.33;;;30.60;;
31734;SDS011;18313;48.518;9.124;2023-03-04T01:43:23;57.10;;;29.50;;
31734;SDS011;18313;48.518;9.124;2023-03-04T01:45:53;64.30;;;31.63;;
31734;SDS011;18313;48.518;9.124;2023-03-04T01:48:32;61.38;;;29.27;;
31734;SDS011;18313;48.518;9.124;2023-03-04T01:51:03;62.58;;;30.10;;
31734;SDS011;18313;48.518;9.124;2023-03-04T01:53:32;64.32;;;30.55;;
31734;SDS011;18313;48.518;9.124;2023-03-04T01:56:00;63.28;;;30.35;;
31734;SDS011;18313;48.518;9.124;2023-03-04T02:01:59;62.10;;;29.92;;
31734;SDS011;18313;48.518;9.124;2023-03-04T02:04:28;66.78;;;30.63;;
31734;SDS011;18313;48.518;9.124;2023-03-04T02:07:00;68.28;;;31.10;;
31734;SDS011;18313;48.518;9.124;2023-03-04T02:09:28;67.38;;;30.50;;
31734;SDS011;18313;48.518;9.124;2023-03-04T02:11:57;64.35;;;31.77;;
31734;SDS011;18313;48.518;9.124;2023-03-04T02:14:24;60.35;;;30.08;;
31734;SDS011;18313;48.518;9.124;2023-03-04T02:16:51;63.83;;;30.23;;
31734;SDS011;18313;48.518;9.124;2023-03-04T02:22:15;72.07;;;31.60;;
31734;SDS011;18313;48.518;9.124;2023-03-04T02:24:53;68.75;;;31.95;;
31734;SDS011;18313;48.518;9.124;2023-03-04T02:27:29;68.30;;;31.35;;
31734;SDS011;18313;48.518;9.124;2023-03-04T02:29:56;63.00;;;30.88;;
31734;SDS011;18313;48.518;9.124;2023-03-04T02:32:23;66.82;;;32.03;;
31734;SDS011;18313;48.518;9.124;2023-03-04T02:34:51;68.47;;;31.85;;
31734;SDS011;18313;48.518;9.124;2023-03-04T02:37:18;66.10;;;31.80;;
31734;SDS011;18313;48.518;9.124;2023-03-04T02:39:47;66.65;;;30.95;;
31734;SDS011;18313;48.518;9.124;2023-03-04T02:42:15;63.97;;;31.63;;
31734;SDS011;18313;48.518;9.124;2023-03-04T02:44:44;70.22;;;31.75;;
31734;SDS011;18313;48.518;9.124;2023-03-04T02:47:14;69.00;;;31.33;;
31734;SDS011;18313;48.518;9.124;2023-03-04T02:49:45;67.18;;;31.27;;
31734;SDS011;18313;48.518;9.124;2023-03-04T02:52:14;64.20;;;31.55;;
31734;SDS011;18313;48.518;9.124;2023-03-04T02:54:45;67.10;;;32.08;;
31734;SDS011;18313;48.518;9.124;2023-03-04T02:57:12;64.75;;;31.17;;
31734;SDS011;18313;48.518;9.124;2023-03-04T02:59:40;61.92;;;30.77;;
31734;SDS011;18313;48.518;9.124;2023-03-04T03:02:08;64.90;;;32.33;;
31734;SDS011;18313;48.518;9.124;2023-03-04T03:04:36;60.85;;;30.00;;
31734;SDS011;18313;48.518;9.124;2023-03-04T03:07:04;60.90;;;30.27;;
31734;SDS011;18313;48.518;9.124;2023-03-04T03:09:32;66.68;;;30.98;;
31734;SDS011;18313;48.518;9.124;2023-03-04T03:11:59;70.80;;;31.55;;
31734;SDS011;18313;48.518;9.124;2023-03-04T03:14:26;66.50;;;31.70;;
31734;SDS011;18313;48.518;9.124;2023-03-04T03:16:53;66.00;;;31.13;;
31734;SDS011;18313;48.518;9.124;2023-03-04T03:19:21;61.75;;;29.95;;
31734;SDS011;18313;48.518;9.124;2023-03-04T03:21:48;69.18;;;32.28;;
31734;SDS011;18313;48.518;9.124;2023-03-04T03:24:15;68.57;;;30.90;;
31734;SDS011;18313;48.518;9.124;2023-03-04T03:26:43;69.53;;;31.00;;
31734;SDS011;18313;48.518;9.124;2023-03-04T03:29:10;69.50;;;32.45;;
31734;SDS011;18313;48.518;9.124;2023-03-04T03:31:37;67.20;;;31.75;;
31734;SDS011;18313;48.518;9.124;2023-03-04T03:34:04;64.45;;;30.10;;
31734;SDS011;18313;48.518;9.124;2023-03-04T03:36:31;64.07;;;30.48;;
31734;SDS011;18313;48.518;9.124;2023-03-04T03:38:58;68.13;;;32.38;;
31734;SDS011;18313;48.518;9.124;2023-03-04T03:41:25;63.50;;;31.38;;
31734;SDS011;18313;48.518;9.124;2023-03-04T03:43:52;61.15;;;31.10;;
31734;SDS011;18313;48.518;9.124;2023-03-04T03:46:19;67.28;;;31.80;;
31734;SDS011;18313;48.518;9.124;2023-03-04T03:48:46;70.00;;;32.67;;
31734;SDS011;18313;48.518;9.124;2023-03-04T03:51:13;69.40;;;33.33;;
31734;SDS011;18313;48.518;9.124;2023-03-04T03:53:40;73.22;;;32.35;;
31734;SDS011;18313;48.518;9.124;2023-03-04T03:56:07;69.97;;;32.08;;
31734;SDS011;18313;48.518;9.124;2023-03-04T03:58:34;73.55;;;33.97;;
31734;SDS011;18313;48.518;9.124;2023-03-04T04:01:01;73.55;;;33.47;;
31734;SDS011;18313;48.518;9.124;2023-03-04T04:03:28;69.40;;;32.50;;
31734;SDS011;18313;48.518;9.124;2023-03-04T04:05:56;74.45;;;31.75;;
31734;SDS011;18313;48.518;9.124;2023-03-04T04:08:23;66.57;;;31.90;;
31734;SDS011;18313;48.518;9.124;2023-03-04T04:10:50;73.38;;;32.65;;
31734;SDS011;18313;48.518;9.124;2023-03-04T04:13:17;65.82;;;32.05;;
31734;SDS011;18313;48.518;9.124;2023-03-04T04:15:44;67.40;;;32.05;;
31734;SDS011;18313;48.518;9.124;2023-03-04T04:18:11;64.18;;;31.73;;
31734;SDS011;18313;48.518;9.124;2023-03-04T04:20:38;66.90;;;31.95;;
31734;SDS011;18313;48.518;9.124;2023-03-04T04:23:05;63.42;;;31.15;;
31734;SDS011;18313;48.518;9.124;2023-03-04T04:25:33;70.57;;;32.47;;
31734;SDS011;18313;48.518;9.124;2023-03-04T04:28:00;68.00;;;31.67;;
31734;SDS011;18313;48.518;9.124;2023-03-04T04:30:27;65.10;;;31.95;;
31734;SDS011;18313;48.518;9.124;2023-03-04T04:32:54;66.93;;;32.20;;
31734;SDS011;18313;48.518;9.124;2023-03-04T04:35:22;67.75;;;33.05;;
31734;SDS011;18313;48.518;9.124;2023-03-04T04:37:49;64.40;;;32.35;;
31734;SDS011;18313;48.518;9.124;2023-03-04T04:40:16;64.70;;;30.85;;
31734;SDS011;18313;48.518;9.124;2023-03-04T04:42:44;62.15;;;31.75;;
31734;SDS011;18313;48.518;9.124;2023-03-04T04:45:11;60.75;;;29.60;;
31734;SDS011;18313;48.518;9.124;2023-03-04T04:47:38;64.90;;;30.42;;
31734;SDS011;18313;48.518;9.124;2023-03-04T04:50:05;62.50;;;30.95;;
31734;SDS011;18313;48.518;9.124;2023-03-04T04:52:33;64.22;;;31.55;;
31734;SDS011;18313;48.518;9.124;2023-03-04T04:55:00;62.88;;;29.73;;
31734;SDS011;18313;48.518;9.124;2023-03-04T04:57:27;69.82;;;31.75;;
31734;SDS011;18313;48.518;9.124;2023-03-04T04:59:55;59.67;;;29.85;;
31734;SDS011;18313;48.518;9.124;2023-03-04T05:02:22;65.47;;;31.13;;
31734;SDS011;18313;48.518;9.124;2023-03-04T05:04:49;61.25;;;30.67;;
31734;SDS011;18313;48.518;9.124;2023-03-04T05:07:16;66.82;;;31.77;;
31734;SDS011;18313;48.518;9.124;2023-03-04T05:09:43;66.18;;;31.67;;
31734;SDS011;18313;48.518;9.124;2023-03-04T05:12:11;69.80;;;31.73;;
31734;SDS011;18313;48.518;9.124;2023-03-04T05:14:38;66.03;;;31.13;;
31734;SDS011;18313;48.518;9.124;2023-03-04T05:17:05;71.53;;;30.73;;
31734;SDS011;18313;48.518;9.124;2023-03-04T05:19:32;64.60;;;30.05;;
31734;SDS011;18313;48.518;9.124;2023-03-04T05:21:59;61.13;;;30.90;;
31734;SDS011;18313;48.518;9.124;2023-03-04T05:24:26;73.78;;;31.33;;
31734;SDS011;18313;48.518;9.124;2023-03-04T05:26:53;64.45;;;29.90;;
31734;SDS011;18313;48.518;9.124;2023-03-04T05:29:20;66.63;;;30.67;;
31734;SDS011;18313;48.518;9.124;2023-03-04T05:31:47;70.00;;;32.70;;
31734;SDS011;18313;48.518;9.124;2023-03-04T05:34:14;57.72;;;29.10;;
31734;SDS011;18313;48.518;9.124;2023-03-04T05:36:41;60.08;;;29.95;;
31734;SDS011;18313;48.518;9.124;2023-03-04T05:39:08;63.80;;;31.02;;
31734;SDS011;18313;48.518;9.124;2023-03-04T05:41:35;63.10;;;29.55;;
31734;SDS011;18313;48.518;9.124;2023-03-04T05:44:02;67.28;;;32.05;;
31734;SDS011;18313;48.518;9.124;2023-03-04T05:46:29;64.35;;;30.42;;
31734;SDS011;18313;48.518;9.124;2023-03-04T05:48:59;69.25;;;30.92;;
31734;SDS011;18313;48.518;9.124;2023-03-04T05:51:26;65.53;;;31.40;;
31734;SDS011;18313;48.518;9.124;2023-03-04T05:53:53;68.55;;;30.92;;
31734;SDS011;18313;48.518;9.124;2023-03-04T05:56:20;61.05;;;29.90;;
31734;SDS011;18313;48.518;9.124;2023-03-04T05:58:47;65.93;;;30.42;;
31734;SDS011;18313;48.518;9.124;2023-03-04T06:01:14;63.83;;;28.92;;
31734;SDS011;18313;48.518;9.124;2023-03-04T06:03:41;68.28;;;31.95;;
31734;SDS011;18313;48.518;9.124;2023-03-04T06:06:09;66.35;;;31.63;;
31734;SDS011;18313;48.518;9.124;2023-03-04T06:08:36;72.55;;;33.45;;
31734;SDS011;18313;48.518;9.124;2023-03-04T06:11:03;69.20;;;31.25;;
31734;SDS011;18313;48.518;9.124;2023-03-04T06:13:31;69.57;;;31.92;;
31734;SDS011;18313;48.518;9.124;2023-03-04T06:15:58;66.53;;;30.58;;
31734;SDS011;18313;48.518;9.124;2023-03-04T06:18:26;66.40;;;31.20;;
31734;SDS011;18313;48.518;9.124;2023-03-04T06:20:58;64.10;;;31.00;;
31734;SDS011;18313;48.518;9.124;2023-03-04T06:23:27;67.22;;;30.83;;
31734;SDS011;18313;48.518;9.124;2023-03-04T06:25:55;73.38;;;32.92;;
31734;SDS011;18313;48.518;9.124;2023-03-04T06:28:24;68.68;;;32.80;;
31734;SDS011;18313;48.518;9.124;2023-03-04T06:30:52;71.68;;;31.85;;
31734;SDS011;18313;48.518;9.124;2023-03-04T06:33:19;69.85;;;33.22;;
31734;SDS011;18313;48.518;9.124;2023-03-04T06:35:47;69.80;;;32.00;;
31734;SDS011;18313;48.518;9.124;2023-03-04T06:38:14;69.80;;;32.15;;
31734;SDS011;18313;48.518;9.124;2023-03-04T06:40:42;70.38;;;30.88;;
31734;SDS011;18313;48.518;9.124;2023-03-04T06:43:11;67.63;;;31.45;;
31734;SDS011;18313;48.518;9.124;2023-03-04T06:45:38;69.43;;;31.92;;
31734;SDS011;18313;48.518;9.124;2023-03-04T06:48:05;65.57;;;31.17;;
31734;SDS011;18313;48.518;9.124;2023-03-04T06:50:32;72.43;;;32.65;;
31734;SDS011;18313;48.518;9.124;2023-03-04T06:53:00;68.38;;;31.23;;
31734;SDS011;18313;48.518;9.124;2023-03-04T06:55:27;70.82;;;30.67;;
31734;SDS011;18313;48.518;9.124;2023-03-04T06:57:54;67.93;;;32.30;;
31734;SDS011;18313;48.518;9.124;2023-03-04T07:00:21;64.90;;;30.83;;
31734;SDS011;18313;48.518;9.124;2023-03-04T07:02:49;71.43;;;32.50;;
31734;SDS011;18313;48.518;9.124;2023-03-04T07:05:19;64.97;;;31.08;;
31734;SDS011;18313;48.518;9.124;2023-03-04T07:07:46;65.45;;;32.17;;
31734;SDS011;18313;48.518;9.124;2023-03-04T07:10:16;67.80;;;32.25;;
31734;SDS011;18313;48.518;9.124;2023-03-04T07:12:47;69.45;;;33.53;;
31734;SDS011;18313;48.518;9.124;2023-03-04T07:15:17;65.43;;;32.30;;
31734;SDS011;18313;48.518;9.124;2023-03-04T07:17:44;68.35;;;32.83;;
31734;SDS011;18313;48.518;9.124;2023-03-04T07:20:11;67.78;;;31.95;;
31734;SDS011;18313;48.518;9.124;2023-03-04T07:22:38;69.25;;;32.30;;
31734;SDS011;18313;48.518;9.124;2023-03-04T07:25:05;69.65;;;32.78;;
31734;SDS011;18313;48.518;9.124;2023-03-04T07:27:32;67.07;;;31.27;;
31734;SDS011;18313;48.518;9.124;2023-03-04T07:29:59;68.30;;;32.15;;
31734;SDS011;18313;48.518;9.124;2023-03-04T07:32:27;68.25;;;31.50;;
31734;SDS011;18313;48.518;9.124;2023-03-04T07:34:54;70.35;;;33.00;;
31734;SDS011;18313;48.518;9.124;2023-03-04T07:37:21;68.68;;;33.72;;
31734;SDS011;18313;48.518;9.124;2023-03-04T07:39:48;68.25;;;32.22;;
31734;SDS011;18313;48.518;9.124;2023-03-04T07:42:15;66.05;;;31.15;;
31734;SDS011;18313;48.518;9.124;2023-03-04T07:44:43;64.28;;;32.42;;
31734;SDS011;18313;48.518;9.124;2023-03-04T07:47:10;62.65;;;31.17;;
31734;SDS011;18313;48.518;9.124;2023-03-04T07:49:37;70.22;;;33.10;;
31734;SDS011;18313;48.518;9.124;2023-03-04T07:52:04;68.30;;;32.85;;
31734;SDS011;18313;48.518;9.124;2023-03-04T07:54:31;65.38;;;32.15;;
31734;SDS011;18313;48.518;9.124;2023-03-04T07:56:59;66.95;;;33.53;;
31734;SDS011;18313;48.518;9.124;2023-03-04T07:59:25;65.50;;;31.48;;
31734;SDS011;18313;48.518;9.124;2023-03-04T08:01:53;64.82;;;32.88;;
31734;SDS011;18313;48.518;9.124;2023-03-04T08:04:20;69.03;;;33.65;;
31734;SDS011;18313;48.518;9.124;2023-03-04T08:06:47;68.80;;;33.65;;
31734;SDS011;18313;48.518;9.124;2023-03-04T08:09:14;68.47;;;32.90;;
31734;SDS011;18313;48.518;9.124;2023-03-04T08:11:41;66.75;;;32.88;;
31734;SDS011;18313;48.518;9.124;2023-03-04T08:14:09;66.72;;;32.80;;
31734;SDS011;18313;48.518;9.124;2023-03-04T08:16:37;67.78;;;33.58;;
31734;SDS011;18313;48.518;9.124;2023-03-04T08:19:05;64.93;;;31.38;;
31734;SDS011;18313;48.518;9.124;2023-03-04T08:21:33;67.90;;;32.65;;
31734;SDS011;18313;48.518;9.124;2023-03-04T08:24:02;62.78;;;30.83;;
31734;SDS011;18313;48.518;9.124;2023-03-04T08:26:37;62.22;;;30.40;;
31734;SDS011;18313;48.518;9.124;2023-03-04T08:29:13;60.42;;;29.35;;
31734;SDS011;18313;48.518;9.124;2023-03-04T08:31:42;59.55;;;29.00;;
31734;SDS011;18313;48.518;9.124;2023-03-04T08:34:14;57.08;;;27.48;;
31734;SDS011;18313;48.518;9.124;2023-03-04T08:36:41;52.25;;;25.70;;
31734;SDS011;18313;48.518;9.124;2023-03-04T08:39:08;57.35;;;26.27;;
31734;SDS011;18313;48.518;9.124;2023-03-04T08:41:39;51.35;;;26.35;;
31734;SDS011;18313;48.518;9.124;2023-03-04T08:44:06;50.88;;;26.17;;
31734;SDS011;18313;48.518;9.124;2023-03-04T08:46:36;49.28;;;23.90;;
31734;SDS011;18313;48.518;9.124;2023-03-04T08:49:04;55.08;;;24.50;;
31734;SDS011;18313;48.518;9.124;2023-03-04T08:51:31;50.00;;;23.90;;
31734;SDS011;18313;48.518;9.124;2023-03-04T08:54:03;47.95;;;24.25;;
31734;SDS011;18313;48.518;9.124;2023-03-04T08:56:30;53.20;;;24.80;;
31734;SDS011;18313;48.518;9.124;2023-03-04T08:58:58;49.72;;;24.20;;
31734;SDS011;18313;48.518;9.124;2023-03-04T09:01:25;59.35;;;25.38;;
31734;SDS011;18313;48.518;9.124;2023-03-04T09:03:53;53.05;;;24.80;;
31734;SDS011;18313;48.518;9.124;2023-03-04T09:06:20;54.65;;;26.30;;
31734;SDS011;18313;48.518;9.124;2023-03-04T09:08:47;52.83;;;24.95;;
31734;SDS011;18313;48.518;9.124;2023-03-04T09:11:14;49.78;;;22.83;;
31734;SDS011;18313;48.518;9.124;2023-03-04T09:13:41;52.65;;;23.80;;
31734;SDS011;18313;48.518;9.124;2023-03-04T09:16:09;50.35;;;23.50;;
31734;SDS011;18313;48.518;9.124;2023-03-04T09:18:39;54.13;;;27.05;;
31734;SDS011;18313;48.518;9.124;2023-03-04T09:21:07;46.95;;;22.73;;
31734;SDS011;18313;48.518;9.124;2023-03-04T09:23:35;46.30;;;20.63;;
31734;SDS011;18313;48.518;9.124;2023-03-04T09:26:17;46.30;;;21.75;;
31734;SDS011;18313;48.518;9.124;2023-03-04T09:28:52;44.78;;;22.40;;
31734;SDS011;18313;48.518;9.124;2023-03-04T09:31:20;49.17;;;21.25;;
31734;SDS011;18313;48.518;9.124;2023-03-04T09:33:47;38.97;;;19.85;;
31734;SDS011;18313;48.518;9.124;2023-03-04T09:36:14;44.25;;;21.55;;
31734;SDS011;18313;48.518;9.124;2023-03-04T09:38:42;44.63;;;20.92;;
31734;SDS011;18313;48.518;9.124;2023-03-04T09:41:11;44.65;;;21.17;;
31734;SDS011;18313;48.518;9.124;2023-03-04T09:43:59;40.92;;;19.45;;
31734;SDS011;18313;48.518;9.124;2023-03-04T09:46:33;38.53;;;18.80;;
31734;SDS011;18313;48.518;9.124;2023-03-04T09:49:03;37.15;;;18.63;;
31734;SDS011;18313;48.518;9.124;2023-03-04T09:54:04;39.92;;;18.13;;
31734;SDS011;18313;48.518;9.124;2023-03-04T09:56:48;35.92;;;17.98;;
31734;SDS011;18313;48.518;9.124;2023-03-04T09:59:24;38.80;;;18.58;;
31734;SDS011;18313;48.518;9.124;2023-03-04T10:01:58;35.20;;;16.83;;
31734;SDS011;18313;48.518;9.124;2023-03-04T10:04:37;40.63;;;18.58;;
31734;SDS011;18313;48.518;9.124;2023-03-04T10:07:12;31.33;;;15.25;;
31734;SDS011;18313;48.518;9.124;2023-03-04T10:09:49;35.78;;;15.88;;
31734;SDS011;18313;48.518;9.124;2023-03-04T10:12:33;32.72;;;14.75;;
31734;SDS011;18313;48.518;9.124;2023-03-04T10:15:06;33.40;;;15.52;;
31734;SDS011;18313;48.518;9.124;2023-03-04T10:18:00;40.30;;;16.15;;
31734;SDS011;18313;48.518;9.124;2023-03-04T10:20:43;32.35;;;15.43;;
31734;SDS011;18313;48.518;9.124;2023-03-04T10:23:32;34.53;;;15.25;;
31734;SDS011;18313;48.518;9.124;2023-03-04T10:26:01;32.10;;;15.18;;
31734;SDS011;18313;48.518;9.124;2023-03-04T10:28:41;31.05;;;15.75;;
31734;SDS011;18313;48.518;9.124;2023-03-04T10:31:11;32.78;;;15.75;;
31734;SDS011;18313;48.518;9.124;2023-03-04T10:33:55;31.85;;;15.85;;
31734;SDS011;18313;48.518;9.124;2023-03-04T10:38:59;29.23;;;15.65;;
31734;SDS011;18313;48.518;9.124;2023-03-04T10:41:30;35.05;;;15.80;;
31734;SDS011;18313;48.518;9.124;2023-03-04T10:46:39;31.90;;;15.75;;
31734;SDS011;18313;48.518;9.124;2023-03-04T10:49:11;30.60;;;15.32;;
31734;SDS011;18313;48.518;9.124;2023-03-04T10:51:41;36.88;;;15.15;;
31734;SDS011;18313;48.518;9.124;2023-03-04T10:54:22;35.10;;;16.17;;
31734;SDS011;18313;48.518;9.124;2023-03-04T11:07:30;36.20;;;16.50;;
31734;SDS011;18313;48.518;9.124;2023-03-04T11:10:20;37.58;;;17.27;;
31734;SDS011;18313;48.518;9.124;2023-03-04T11:16:20;40.45;;;17.52;;
31734;SDS011;18313;48.518;9.124;2023-03-04T11:18:52;37.38;;;18.17;;
31734;SDS011;18313;48.518;9.124;2023-03-04T11:21:23;37.08;;;17.38;;
31734;SDS011;18313;48.518;9.124;2023-03-04T11:23:56;35.05;;;16.88;;
31734;SDS011;18313;48.518;9.124;2023-03-04T11:29:21;34.92;;;17.85;;
31734;SDS011;18313;48.518;9.124;2023-03-04T11:31:57;39.42;;;17.52;;
31734;SDS011;18313;48.518;9.124;2023-03-04T11:37:31;36.08;;;17.30;;
31734;SDS011;18313;48.518;9.124;2023-03-04T11:40:11;35.25;;;16.65;;
31734;SDS011;18313;48.518;9.124;2023-03-04T11:42:44;36.05;;;17.63;;
31734;SDS011;18313;48.518;9.124;2023-03-04T11:45:31;36.85;;;17.35;;
31734;SDS011;18313;48.518;9.124;2023-03-04T11:50:50;35.20;;;17.40;;
31734;SDS011;18313;48.518;9.124;2023-03-04T12:01:49;32.97;;;17.10;;
31734;SDS011;18313;48.518;9.124;2023-03-04T12:12:53;38.67;;;18.55;;
31734;SDS011;18313;48.518;9.124;2023-03-04T12:15:27;35.65;;;17.52;;
31734;SDS011;18313;48.518;9.124;2023-03-04T12:18:28;36.67;;;18.20;;
31734;SDS011;18313;48.518;9.124;2023-03-04T12:21:16;35.03;;;17.70;;
31734;SDS011;18313;48.518;9.124;2023-03-04T12:26:24;33.15;;;17.08;;
31734;SDS011;18313;48.518;9.124;2023-03-04T12:34:55;34.08;;;17.80;;
31734;SDS011;18313;48.518;9.124;2023-03-04T12:40:32;38.05;;;20.13;;
31734;SDS011;18313;48.518;9.124;2023-03-04T12:43:26;35.70;;;19.40;;
31734;SDS011;18313;48.518;9.124;2023-03-04T12:49:08;37.17;;;19.15;;
31734;SDS011;18313;48.518;9.124;2023-03-04T12:57:13;34.35;;;19.65;;
31734;SDS011;18313;48.518;9.124;2023-03-04T12:59:48;39.05;;;19.83;;
31734;SDS011;18313;48.518;9.124;2023-03-04T13:10:52;35.20;;;19.08;;
31734;SDS011;18313;48.518;9.124;2023-03-04T13:13:32;37.85;;;19.20;;
31734;SDS011;18313;48.518;9.124;2023-03-04T13:18:43;35.58;;;18.45;;
31734;SDS011;18313;48.518;9.124;2023-03-04T13:23:37;39.08;;;20.08;;
31734;SDS011;18313;48.518;9.124;2023-03-04T13:26:18;37.42;;;20.25;;
31734;SDS011;18313;48.518;9.124;2023-03-04T13:28:51;36.17;;;19.13;;
31734;SDS011;18313;48.518;9.124;2023-03-04T13:31:20;37.47;;;20.15;;
31734;SDS011;18313;48.518;9.124;2023-03-04T13:33:52;34.63;;;18.98;;
31734;SDS011;18313;48.518;9.124;2023-03-04T13:36:50;36.55;;;19.63;;
31734;SDS011;18313;48.518;9.124;2023-03-04T13:39:25;36.83;;;18.50;;
31734;SDS011;18313;48.518;9.124;2023-03-04T13:41:53;36.65;;;19.90;;
31734;SDS011;18313;48.518;9.124;2023-03-04T13:47:13;36.15;;;19.40;;
31734;SDS011;18313;48.518;9.124;2023-03-04T13:49:44;33.50;;;19.10;;
31734;SDS011;18313;48.518;9.124;2023-03-04T13:58:06;39.78;;;20.42;;
31734;SDS011;18313;48.518;9.124;2023-03-04T14:00:53;40.20;;;21.25;;
31734;SDS011;18313;48.518;9.124;2023-03-04T14:03:22;48.80;;;26.17;;
31734;SDS011;18313;48.518;9.124;2023-03-04T14:08:56;44.55;;;23.38;;
31734;SDS011;18313;48.518;9.124;2023-03-04T14:11:25;38.97;;;22.48;;
31734;SDS011;18313;48.518;9.124;2023-03-04T14:13:54;44.03;;;23.27;;
31734;SDS011;18313;48.518;9.124;2023-03-04T14:16:24;47.92;;;25.75;;
31734;SDS011;18313;48.518;9.124;2023-03-04T14:19:03;42.10;;;23.65;;
31734;SDS011;18313;48.518;9.124;2023-03-04T14:21:34;44.92;;;25.30;;
31734;SDS011;18313;48.518;9.124;2023-03-04T14:24:06;47.50;;;26.42;;
31734;SDS011;18313;48.518;9.124;2023-03-04T14:26:37;45.17;;;24.30;;
31734;SDS011;18313;48.518;9.124;2023-03-04T14:29:18;50.58;;;24.90;;
31734;SDS011;18313;48.518;9.124;2023-03-04T14:31:48;62.80;;;29.15;;
31734;SDS011;18313;48.518;9.124;2023-03-04T14:34:18;46.47;;;24.80;;
31734;SDS011;18313;48.518;9.124;2023-03-04T14:36:49;72.32;;;35.53;;
31734;SDS011;18313;48.518;9.124;2023-03-04T14:39:17;44.85;;;22.48;;
31734;SDS011;18313;48.518;9.124;2023-03-04T14:41:46;48.28;;;25.17;;
31734;SDS011;18313;48.518;9.124;2023-03-04T14:44:19;48.70;;;25.13;;
31734;SDS011;18313;48.518;9.124;2023-03-04T14:47:13;42.75;;;23.23;;
31734;SDS011;18313;48.518;9.124;2023-03-04T14:49:48;42.92;;;22.92;;
31734;SDS011;18313;48.518;9.124;2023-03-04T14:52:26;45.53;;;23.80;;
31734;SDS011;18313;48.518;9.124;2023-03-04T14:55:02;46.38;;;23.30;;
31734;SDS011;18313;48.518;9.124;2023-03-04T14:57:46;76.95;;;38.38;;
31734;SDS011;18313;48.518;9.124;2023-03-04T15:02:56;48.70;;;24.45;;
31734;SDS011;18313;48.518;9.124;2023-03-04T15:05:29;46.38;;;23.73;;
31734;SDS011;18313;48.518;9.124;2023-03-04T15:07:59;48.40;;;24.55;;
31734;SDS011;18313;48.518;9.124;2023-03-04T15:10:31;43.42;;;22.50;;
31734;SDS011;18313;48.518;9.124;2023-03-04T15:13:04;42.15;;;23.08;;
31734;SDS011;18313;48.518;9.124;2023-03-04T15:15:40;44.40;;;24.08;;
31734;SDS011;18313;48.518;9.124;2023-03-04T15:18:26;46.60;;;23.90;;
31734;SDS011;18313;48.518;9.124;2023-03-04T15:20:59;51.90;;;26.17;;
31734;SDS011;18313;48.518;9.124;2023-03-04T15:23:29;51.70;;;25.35;;
31734;SDS011;18313;48.518;9.124;2023-03-04T15:25:58;50.38;;;26.33;;
31734;SDS011;18313;48.518;9.124;2023-03-04T15:28:33;55.08;;;25.33;;
31734;SDS011;18313;48.518;9.124;2023-03-04T15:31:02;50.10;;;25.30;;
31734;SDS011;18313;48.518;9.124;2023-03-04T15:33:32;49.47;;;25.10;;
31734;SDS011;18313;48.518;9.124;2023-03-04T15:35:59;49.90;;;25.17;;
31734;SDS011;18313;48.518;9.124;2023-03-04T15:38:27;58.42;;;26.17;;
31734;SDS011;18313;48.518;9.124;2023-03-04T15:40:55;47.53;;;24.73;;
31734;SDS011;18313;48.518;9.124;2023-03-04T15:43:25;53.38;;;24.70;;
31734;SDS011;18313;48.518;9.124;2023-03-04T15:45:53;55.05;;;24.70;;
31734;SDS011;18313;48.518;9.124;2023-03-04T15:48:20;49.30;;;23.77;;
31734;SDS011;18313;48.518;9.124;2023-03-04T15:50:48;52.22;;;24.10;;
31734;SDS011;18313;48.518;9.124;2023-03-04T15:53:30;55.60;;;24.45;;
31734;SDS011;18313;48.518;9.124;2023-03-04T15:56:17;51.35;;;24.00;;
31734;SDS011;18313;48.518;9.124;2023-03-04T15:58:49;48.20;;;22.52;;
31734;SDS011;18313;48.518;9.124;2023-03-04T16:01:23;47.08;;;22.63;;
31734;SDS011;18313;48.518;9.124;2023-03-04T16:03:50;47.20;;;23.23;;
31734;SDS011;18313;48.518;9.124;2023-03-04T16:06:19;50.63;;;21.60;;
31734;SDS011;18313;48.518;9.124;2023-03-04T16:08:49;52.20;;;22.48;;
31734;SDS011;18313;48.518;9.124;2023-03-04T16:11:24;47.55;;;21.73;;
31734;SDS011;18313;48.518;9.124;2023-03-04T16:13:53;51.13;;;22.35;;
31734;SDS011;18313;48.518;9.124;2023-03-04T16:16:20;52.10;;;22.90;;
31734;SDS011;18313;48.518;9.124;2023-03-04T16:18:47;54.53;;;22.10;;